Time;durP1;ratioP1;P1;durP2;ratioP2;P2;SDS_P1;SDS_P2;PMS_P1;PMS_P2;Temp;Humidity;BMP_temperature;BMP_pressure;BME280_temperature;BME280_humidity;BME280_pressure;Samples;Min_cycle;Max_cycle;Signal;HPM_P1;HPM_P2
2022/03/10 00:01:56;;;;;;;19.83;10.05;;;;;;;;;;5050145;28;20040;-69
2022/03/10 00:04:22;;;;;;;19.83;10.05;;;;;;;;;;5049758;28;20025;-69
2022/03/10 00:06:48;;;;;;;17.80;8.95;;;;;;;;;;5051024;28;20386;-69
2022/03/10 00:09:13;;;;;;;18.08;9.45;;;;;;;;;;5050802;28;20031;-65
2022/03/10 00:11:40;;;;;;;18.55;9.25;;;;;;;;;;5050513;28;20037;-69
2022/03/10 00:14:05;;;;;;;19.52;9.90;;;;;;;;;;5048071;28;20025;-69
2022/03/10 00:16:31;;;;;;;22.00;9.73;;;;;;;;;;5049678;28;20533;-67
2022/03/10 00:18:56;;;;;;;18.83;9.88;;;;;;;;;;5049946;28;20044;-68
2022/03/10 00:21:21;;;;;;;18.92;9.75;;;;;;;;;;5047708;28;20045;-67
2022/03/10 00:23:48;;;;;;;19.88;10.02;;;;;;;;;;5049013;28;20039;-68
2022/03/10 00:26:13;;;;;;;17.27;9.35;;;;;;;;;;5052280;28;20040;-65
2022/03/10 00:28:39;;;;;;;20.60;10.02;;;;;;;;;;5051432;28;20037;-68
2022/03/10 00:31:04;;;;;;;20.92;10.00;;;;;;;;;;5050523;28;20080;-67
2022/03/10 00:33:30;;;;;;;17.90;9.45;;;;;;;;;;5049550;28;20033;-67
2022/03/10 00:35:55;;;;;;;19.30;10.02;;;;;;;;;;5050706;28;20033;-69
2022/03/10 00:38:20;;;;;;;20.42;9.90;;;;;;;;;;5052558;28;20040;-69
2022/03/10 00:40:46;;;;;;;21.95;10.57;;;;;;;;;;5047758;28;20097;-67
2022/03/10 00:43:14;;;;;;;20.08;9.73;;;;;;;;;;5053362;28;20036;-65
2022/03/10 00:45:40;;;;;;;21.52;10.52;;;;;;;;;;5034512;28;20076;-69
2022/03/10 00:48:07;;;;;;;20.25;9.98;;;;;;;;;;5032615;28;20049;-68
2022/03/10 00:50:32;;;;;;;21.52;10.40;;;;;;;;;;5049970;28;20237;-69
2022/03/10 00:52:59;;;;;;;19.85;9.73;;;;;;;;;;5050373;28;20481;-67
2022/03/10 00:55:25;;;;;;;19.80;10.20;;;;;;;;;;5048625;28;20037;-68
2022/03/10 00:57:51;;;;;;;20.50;10.18;;;;;;;;;;5057436;28;20367;-67
2022/03/10 01:00:17;;;;;;;17.92;9.65;;;;;;;;;;5052557;28;20036;-66
2022/03/10 01:02:43;;;;;;;24.75;10.15;;;;;;;;;;5051174;28;20033;-68
2022/03/10 01:05:09;;;;;;;22.80;10.73;;;;;;;;;;5052055;28;20033;-71
2022/03/10 01:07:35;;;;;;;21.15;10.10;;;;;;;;;;5052920;28;20025;-68
2022/03/10 01:10:03;;;;;;;20.45;9.80;;;;;;;;;;5054815;28;20044;-68
2022/03/10 01:12:29;;;;;;;20.85;9.57;;;;;;;;;;5054166;28;20079;-68
2022/03/10 01:14:54;;;;;;;21.35;10.45;;;;;;;;;;5053869;28;20037;-69
2022/03/10 01:17:20;;;;;;;20.55;10.07;;;;;;;;;;5053041;28;20032;-68
2022/03/10 01:19:46;;;;;;;22.73;10.77;;;;;;;;;;5052770;28;20053;-69
2022/03/10 01:22:11;;;;;;;20.73;10.35;;;;;;;;;;5053119;28;20037;-67
2022/03/10 01:24:37;;;;;;;21.48;10.38;;;;;;;;;;5051954;28;20079;-68
2022/03/10 01:27:02;;;;;;;20.02;10.32;;;;;;;;;;5052499;28;20032;-67
2022/03/10 01:29:28;;;;;;;20.83;9.70;;;;;;;;;;5054160;28;20036;-67
2022/03/10 01:31:53;;;;;;;17.92;10.05;;;;;;;;;;5069338;28;20422;-68
2022/03/10 01:34:19;;;;;;;24.00;10.45;;;;;;;;;;5053372;28;20103;-65
2022/03/10 01:36:44;;;;;;;17.63;9.52;;;;;;;;;;5051698;28;20434;-67
2022/03/10 01:39:09;;;;;;;19.58;10.02;;;;;;;;;;5053005;28;20052;-67
2022/03/10 01:41:35;;;;;;;21.52;10.82;;;;;;;;;;5052326;28;20037;-68
2022/03/10 01:44:03;;;;;;;21.77;9.65;;;;;;;;;;5053595;28;20044;-66
2022/03/10 01:46:29;;;;;;;20.58;9.77;;;;;;;;;;5050953;28;20036;-68
2022/03/10 01:48:55;;;;;;;18.92;10.00;;;;;;;;;;5051426;28;20025;-68
2022/03/10 01:51:22;;;;;;;19.23;9.95;;;;;;;;;;5052487;28;20033;-67
2022/03/10 01:53:52;;;;;;;22.35;10.38;;;;;;;;;;5052090;28;20178;-68
2022/03/10 01:56:19;;;;;;;20.20;9.52;;;;;;;;;;5050137;28;20033;-65
2022/03/10 01:58:47;;;;;;;21.30;10.23;;;;;;;;;;5052908;28;20371;-67
2022/03/10 02:01:13;;;;;;;25.05;10.70;;;;;;;;;;5043307;28;20098;-67
2022/03/10 02:03:38;;;;;;;19.73;9.95;;;;;;;;;;5051587;28;20108;-68
2022/03/10 02:06:05;;;;;;;21.80;11.00;;;;;;;;;;5051586;28;20439;-67
2022/03/10 02:11:14;;;;;;;20.33;10.52;;;;;;;;;;5052106;28;20418;-68
2022/03/10 02:13:40;;;;;;;20.65;10.57;;;;;;;;;;5050689;28;20036;-68
2022/03/10 02:18:54;;;;;;;21.90;10.45;;;;;;;;;;5053957;28;20059;-68
2022/03/10 02:21:19;;;;;;;23.05;9.93;;;;;;;;;;5051381;28;20032;-65
2022/03/10 02:23:44;;;;;;;23.02;10.57;;;;;;;;;;5051724;28;20039;-68
2022/03/10 02:26:12;;;;;;;23.80;10.77;;;;;;;;;;5062654;28;20028;-68
2022/03/10 02:28:38;;;;;;;19.63;9.80;;;;;;;;;;5061899;28;20083;-68
2022/03/10 02:31:04;;;;;;;19.83;9.75;;;;;;;;;;5037770;28;20533;-68
2022/03/10 02:33:29;;;;;;;22.58;9.80;;;;;;;;;;5040175;28;20037;-68
2022/03/10 02:35:54;;;;;;;19.40;9.75;;;;;;;;;;5052647;28;20033;-67
2022/03/10 02:38:20;;;;;;;20.33;9.98;;;;;;;;;;5050237;28;20082;-65
2022/03/10 02:40:49;;;;;;;19.90;9.68;;;;;;;;;;5050201;28;20127;-68
2022/03/10 02:43:15;;;;;;;20.85;9.32;;;;;;;;;;5052527;28;20055;-68
2022/03/10 02:45:41;;;;;;;19.00;9.32;;;;;;;;;;5051907;28;20032;-67
2022/03/10 02:48:06;;;;;;;19.73;10.02;;;;;;;;;;5052439;28;20079;-68
2022/03/10 02:50:32;;;;;;;23.98;9.93;;;;;;;;;;5050274;28;20509;-68
2022/03/10 02:52:57;;;;;;;19.05;9.40;;;;;;;;;;5051536;28;20028;-68
2022/03/10 02:55:22;;;;;;;20.77;9.63;;;;;;;;;;5051200;28;20363;-65
2022/03/10 02:57:49;;;;;;;20.08;9.77;;;;;;;;;;5052016;28;20033;-67
2022/03/10 03:00:15;;;;;;;20.05;9.57;;;;;;;;;;5052902;28;20044;-68
2022/03/10 03:02:42;;;;;;;23.23;9.63;;;;;;;;;;5051195;28;20119;-68
2022/03/10 03:05:09;;;;;;;21.92;10.02;;;;;;;;;;5058864;28;20489;-69
2022/03/10 03:07:35;;;;;;;19.55;9.63;;;;;;;;;;5070259;28;20036;-69
2022/03/10 03:10:02;;;;;;;19.63;9.95;;;;;;;;;;5046964;28;20033;-68
2022/03/10 03:12:28;;;;;;;17.17;9.20;;;;;;;;;;5045672;28;20478;-68
2022/03/10 03:14:54;;;;;;;19.77;9.73;;;;;;;;;;5050361;28;20036;-68
2022/03/10 03:17:19;;;;;;;21.85;10.18;;;;;;;;;;5053550;28;20096;-68
2022/03/10 03:19:45;;;;;;;20.85;9.65;;;;;;;;;;5048408;28;20325;-69
2022/03/10 03:22:10;;;;;;;20.95;10.05;;;;;;;;;;5050279;28;20475;-68
2022/03/10 03:24:36;;;;;;;20.67;9.82;;;;;;;;;;5050162;28;20032;-69
2022/03/10 03:27:01;;;;;;;18.83;9.43;;;;;;;;;;5051693;28;20032;-68
2022/03/10 03:29:27;;;;;;;20.02;9.77;;;;;;;;;;5049209;28;20064;-67
2022/03/10 03:31:53;;;;;;;20.85;9.55;;;;;;;;;;5052938;28;20040;-68
2022/03/10 03:34:18;;;;;;;18.63;9.55;;;;;;;;;;5051748;28;20036;-69
2022/03/10 03:36:45;;;;;;;19.33;9.30;;;;;;;;;;5049474;28;20684;-70
2022/03/10 03:39:11;;;;;;;18.95;9.35;;;;;;;;;;5050117;28;20040;-69
2022/03/10 03:41:38;;;;;;;18.92;9.63;;;;;;;;;;5049126;28;20060;-68
2022/03/10 03:44:06;;;;;;;19.88;10.18;;;;;;;;;;5049817;28;20037;-69
2022/03/10 03:46:32;;;;;;;18.77;9.48;;;;;;;;;;5051925;28;20037;-68
2022/03/10 03:48:57;;;;;;;22.23;9.95;;;;;;;;;;5050361;28;20029;-68
2022/03/10 03:51:23;;;;;;;22.42;10.40;;;;;;;;;;5050300;28;20039;-64
2022/03/10 03:53:49;;;;;;;18.95;9.50;;;;;;;;;;5048951;28;20029;-67
2022/03/10 03:56:15;;;;;;;19.90;9.65;;;;;;;;;;5050752;28;20036;-68
2022/03/10 03:58:41;;;;;;;18.77;9.52;;;;;;;;;;5048174;28;20037;-69
2022/03/10 04:01:06;;;;;;;22.63;9.60;;;;;;;;;;5049618;28;20041;-68
2022/03/10 04:03:32;;;;;;;20.55;9.75;;;;;;;;;;5051276;28;20137;-69
2022/03/10 04:05:58;;;;;;;20.58;9.63;;;;;;;;;;5049805;28;20111;-68
2022/03/10 04:08:24;;;;;;;19.23;9.25;;;;;;;;;;5050964;28;20067;-66
2022/03/10 04:10:51;;;;;;;21.65;9.65;;;;;;;;;;5046019;28;20057;-68
2022/03/10 04:13:17;;;;;;;20.05;8.95;;;;;;;;;;5051677;28;20051;-68
2022/03/10 04:15:42;;;;;;;26.55;9.23;;;;;;;;;;5050193;28;20410;-68
2022/03/10 04:18:08;;;;;;;21.08;9.48;;;;;;;;;;5049669;28;20173;-68
2022/03/10 04:20:33;;;;;;;21.90;9.68;;;;;;;;;;5048698;28;20536;-69
2022/03/10 04:22:59;;;;;;;17.83;9.02;;;;;;;;;;5066606;28;20029;-68
2022/03/10 04:25:24;;;;;;;19.92;9.40;;;;;;;;;;5051903;28;20021;-68
2022/03/10 04:27:53;;;;;;;19.45;8.90;;;;;;;;;;5050228;28;20025;-69
2022/03/10 04:30:22;;;;;;;18.58;9.00;;;;;;;;;;5042774;28;20025;-68
2022/03/10 04:32:48;;;;;;;18.08;9.13;;;;;;;;;;5057497;28;20101;-69
2022/03/10 04:35:16;;;;;;;18.35;8.57;;;;;;;;;;5052436;28;20032;-64
2022/03/10 04:37:43;;;;;;;18.13;8.82;;;;;;;;;;5054528;28;20058;-68
2022/03/10 04:40:09;;;;;;;20.00;9.07;;;;;;;;;;5051259;28;20025;-68
2022/03/10 04:42:36;;;;;;;21.60;9.80;;;;;;;;;;5054293;28;20028;-68
2022/03/10 04:45:02;;;;;;;18.88;8.80;;;;;;;;;;5053114;28;20033;-68
2022/03/10 04:47:28;;;;;;;16.30;7.95;;;;;;;;;;5035991;28;20099;-65
2022/03/10 04:49:54;;;;;;;20.58;8.93;;;;;;;;;;5049046;28;20462;-69
2022/03/10 04:52:19;;;;;;;18.63;8.43;;;;;;;;;;5072600;28;20396;-68
2022/03/10 04:54:45;;;;;;;18.80;7.93;;;;;;;;;;5069808;28;20353;-68
2022/03/10 04:57:10;;;;;;;17.05;8.70;;;;;;;;;;5053132;28;20033;-69
2022/03/10 04:59:35;;;;;;;20.50;9.10;;;;;;;;;;5051852;28;20033;-69
2022/03/10 05:02:01;;;;;;;18.70;8.32;;;;;;;;;;5030870;28;20029;-68
2022/03/10 05:04:26;;;;;;;19.17;8.23;;;;;;;;;;5056763;28;20377;-68
2022/03/10 05:06:52;;;;;;;18.38;8.50;;;;;;;;;;5051240;28;20081;-67
2022/03/10 05:09:17;;;;;;;18.58;8.30;;;;;;;;;;5054161;28;20032;-69
2022/03/10 05:11:42;;;;;;;20.25;8.75;;;;;;;;;;5043226;28;20038;-68
2022/03/10 05:14:08;;;;;;;20.83;8.48;;;;;;;;;;5040653;28;20071;-69
2022/03/10 05:16:34;;;;;;;16.88;8.30;;;;;;;;;;5049803;28;20061;-68
2022/03/10 05:18:59;;;;;;;22.98;8.45;;;;;;;;;;5044324;28;20047;-68
2022/03/10 05:21:24;;;;;;;18.55;8.80;;;;;;;;;;5051770;28;20471;-69
2022/03/10 05:23:52;;;;;;;18.15;9.02;;;;;;;;;;5049510;28;20033;-67
2022/03/10 05:26:21;;;;;;;18.25;8.52;;;;;;;;;;5054571;28;20040;-69
2022/03/10 05:28:46;;;;;;;18.00;8.73;;;;;;;;;;5050088;28;20036;-68
2022/03/10 05:31:12;;;;;;;16.83;8.25;;;;;;;;;;5055869;28;20085;-69
2022/03/10 05:33:37;;;;;;;18.50;8.30;;;;;;;;;;5054111;28;20033;-68
2022/03/10 05:36:03;;;;;;;19.35;8.10;;;;;;;;;;5074196;28;20446;-68
2022/03/10 05:38:28;;;;;;;17.63;8.80;;;;;;;;;;5047688;28;20486;-68
2022/03/10 05:40:53;;;;;;;19.63;8.90;;;;;;;;;;5051495;28;20032;-69
2022/03/10 05:43:19;;;;;;;17.85;8.77;;;;;;;;;;5057611;28;20055;-68
2022/03/10 05:45:44;;;;;;;17.83;8.00;;;;;;;;;;5073316;28;20524;-68
2022/03/10 05:48:10;;;;;;;22.80;9.68;;;;;;;;;;5072621;28;20033;-69
2022/03/10 05:50:35;;;;;;;20.67;8.95;;;;;;;;;;5071686;28;20032;-68
2022/03/10 05:53:01;;;;;;;18.40;8.73;;;;;;;;;;5071641;28;20477;-68
2022/03/10 05:55:26;;;;;;;18.63;8.50;;;;;;;;;;5046468;28;20044;-68
2022/03/10 05:57:52;;;;;;;20.90;8.88;;;;;;;;;;5052294;28;20028;-68
2022/03/10 06:00:18;;;;;;;19.67;8.93;;;;;;;;;;5053067;28;20390;-67
2022/03/10 06:02:44;;;;;;;17.77;8.77;;;;;;;;;;5054651;28;20025;-68
2022/03/10 06:05:09;;;;;;;17.10;8.57;;;;;;;;;;5062347;28;20033;-67
2022/03/10 06:07:35;;;;;;;18.38;8.48;;;;;;;;;;5037641;28;20056;-65
2022/03/10 06:10:01;;;;;;;18.63;9.60;;;;;;;;;;5050897;28;20040;-73
2022/03/10 06:12:28;;;;;;;21.73;9.02;;;;;;;;;;5049336;28;20028;-72
2022/03/10 06:14:55;;;;;;;18.75;9.32;;;;;;;;;;5037985;28;20604;-76
2022/03/10 06:17:20;;;;;;;21.58;9.43;;;;;;;;;;5053170;28;20029;-76
2022/03/10 06:19:46;;;;;;;22.00;9.90;;;;;;;;;;5051114;28;20052;-74
2022/03/10 06:22:18;;;;;;;24.63;10.52;;;;;;;;;;5052173;28;20413;-76
2022/03/10 06:24:47;;;;;;;28.08;10.95;;;;;;;;;;5059939;28;20029;-74
2022/03/10 06:27:14;;;;;;;22.67;9.90;;;;;;;;;;5052209;28;20040;-76
2022/03/10 06:29:40;;;;;;;23.92;9.65;;;;;;;;;;5051660;28;20044;-76
2022/03/10 06:32:06;;;;;;;26.73;10.07;;;;;;;;;;5051449;28;20033;-76
2022/03/10 06:34:31;;;;;;;21.02;9.90;;;;;;;;;;5051270;28;20498;-69
2022/03/10 06:36:57;;;;;;;21.58;9.10;;;;;;;;;;5050109;28;20488;-74
2022/03/10 06:39:23;;;;;;;23.42;9.93;;;;;;;;;;5034166;28;20036;-75
2022/03/10 06:41:48;;;;;;;22.83;10.50;;;;;;;;;;5050468;28;20029;-78
2022/03/10 06:44:14;;;;;;;22.73;9.32;;;;;;;;;;5051322;28;20037;-75
2022/03/10 06:46:39;;;;;;;20.75;9.85;;;;;;;;;;5051268;28;20042;-73
2022/03/10 06:49:05;;;;;;;19.73;9.80;;;;;;;;;;5052626;28;20075;-77
2022/03/10 06:51:30;;;;;;;20.70;9.25;;;;;;;;;;5051562;28;20032;-72
2022/03/10 06:53:56;;;;;;;22.85;9.50;;;;;;;;;;5071663;28;20036;-72
2022/03/10 06:56:22;;;;;;;21.15;9.02;;;;;;;;;;5056926;28;20028;-77
2022/03/10 06:58:47;;;;;;;18.63;8.93;;;;;;;;;;5052796;28;20029;-77
2022/03/10 07:01:13;;;;;;;20.42;8.82;;;;;;;;;;5050620;28;20040;-74
2022/03/10 07:03:38;;;;;;;19.67;9.13;;;;;;;;;;5051587;28;20589;-77
2022/03/10 07:06:04;;;;;;;20.30;9.65;;;;;;;;;;5051560;28;20045;-74
2022/03/10 07:08:29;;;;;;;20.70;9.43;;;;;;;;;;5052033;28;20035;-75
2022/03/10 07:10:54;;;;;;;17.50;8.80;;;;;;;;;;5052924;28;20039;-77
2022/03/10 07:13:20;;;;;;;20.13;9.38;;;;;;;;;;5052066;28;20041;-76
2022/03/10 07:15:46;;;;;;;21.67;9.20;;;;;;;;;;5049279;28;20028;-75
2022/03/10 07:18:11;;;;;;;18.50;9.40;;;;;;;;;;5063072;28;20045;-77
2022/03/10 07:20:37;;;;;;;24.60;9.60;;;;;;;;;;5062375;28;20049;-72
2022/03/10 07:23:03;;;;;;;21.02;10.15;;;;;;;;;;5055392;28;20094;-75
2022/03/10 07:25:29;;;;;;;21.55;10.25;;;;;;;;;;5053874;28;20040;-77
2022/03/10 07:27:54;;;;;;;20.83;9.77;;;;;;;;;;5051074;28;20036;-71
2022/03/10 07:30:20;;;;;;;19.25;9.82;;;;;;;;;;5051572;28;20032;-71
2022/03/10 07:32:45;;;;;;;18.52;9.98;;;;;;;;;;5049954;28;20032;-71
2022/03/10 07:35:10;;;;;;;22.15;10.55;;;;;;;;;;5051400;28;20067;-72
2022/03/10 07:37:36;;;;;;;21.45;9.55;;;;;;;;;;5050271;28;20086;-73
2022/03/10 07:40:02;;;;;;;19.80;9.40;;;;;;;;;;5051077;28;20029;-70
2022/03/10 07:42:27;;;;;;;27.08;10.48;;;;;;;;;;5050836;28;20044;-70
2022/03/10 07:44:53;;;;;;;22.00;9.70;;;;;;;;;;5050571;28;20029;-71
2022/03/10 07:47:18;;;;;;;21.45;10.13;;;;;;;;;;5051295;28;20064;-70
2022/03/10 07:49:43;;;;;;;23.90;10.40;;;;;;;;;;5049324;28;20037;-71
2022/03/10 07:52:09;;;;;;;22.83;10.70;;;;;;;;;;5058801;28;20033;-72
2022/03/10 07:54:34;;;;;;;26.17;10.35;;;;;;;;;;5031642;28;20029;-68
2022/03/10 07:57:00;;;;;;;25.20;10.70;;;;;;;;;;5044059;28;20068;-75
2022/03/10 07:59:26;;;;;;;21.38;10.50;;;;;;;;;;5050997;28;20475;-75
2022/03/10 08:01:51;;;;;;;25.92;10.35;;;;;;;;;;5050147;28;20036;-74
2022/03/10 08:04:17;;;;;;;21.25;9.90;;;;;;;;;;5051329;28;20112;-74
2022/03/10 08:06:42;;;;;;;20.63;9.80;;;;;;;;;;5053794;28;20171;-75
2022/03/10 08:09:10;;;;;;;23.08;10.40;;;;;;;;;;5055253;28;20449;-76
2022/03/10 08:11:36;;;;;;;22.33;10.13;;;;;;;;;;5054797;28;20459;-70
2022/03/10 08:14:02;;;;;;;22.88;10.50;;;;;;;;;;5054771;28;20029;-77
2022/03/10 08:16:28;;;;;;;20.63;10.75;;;;;;;;;;5054936;28;20052;-75
2022/03/10 08:18:53;;;;;;;28.55;11.15;;;;;;;;;;5054264;28;20056;-75
2022/03/10 08:21:18;;;;;;;21.63;11.68;;;;;;;;;;5055484;28;20119;-75
2022/03/10 08:23:44;;;;;;;30.33;10.95;;;;;;;;;;5054079;28;20031;-74
2022/03/10 08:26:09;;;;;;;23.27;10.65;;;;;;;;;;5053781;28;20025;-78
2022/03/10 08:28:36;;;;;;;23.98;11.20;;;;;;;;;;5054263;28;20076;-72
2022/03/10 08:31:04;;;;;;;23.33;11.55;;;;;;;;;;5054198;28;20032;-77
2022/03/10 08:33:30;;;;;;;23.73;11.30;;;;;;;;;;5054237;28;20466;-78
2022/03/10 08:35:55;;;;;;;20.70;11.13;;;;;;;;;;5053845;28;20041;-76
2022/03/10 08:38:21;;;;;;;24.98;11.52;;;;;;;;;;5054901;28;20029;-74
2022/03/10 08:40:46;;;;;;;23.70;11.15;;;;;;;;;;5054501;28;20053;-76
2022/03/10 08:43:12;;;;;;;23.00;10.82;;;;;;;;;;5054694;28;20083;-76
2022/03/10 08:45:39;;;;;;;23.80;10.32;;;;;;;;;;5058884;28;20029;-70
2022/03/10 08:48:05;;;;;;;22.13;11.25;;;;;;;;;;5053480;28;20048;-76
2022/03/10 08:50:30;;;;;;;25.27;11.65;;;;;;;;;;5053346;28;20051;-76
2022/03/10 08:52:56;;;;;;;23.98;11.60;;;;;;;;;;5053224;28;20037;-78
2022/03/10 08:55:22;;;;;;;19.27;10.82;;;;;;;;;;5048276;28;20091;-77
2022/03/10 08:57:47;;;;;;;26.50;10.43;;;;;;;;;;5053089;28;20470;-72
2022/03/10 09:00:14;;;;;;;25.83;11.40;;;;;;;;;;5054124;28;20471;-76
2022/03/10 09:02:42;;;;;;;22.88;10.85;;;;;;;;;;5052935;28;20036;-70
2022/03/10 09:05:11;;;;;;;25.38;12.10;;;;;;;;;;5053966;28;20037;-76
2022/03/10 09:07:37;;;;;;;26.33;12.00;;;;;;;;;;5053757;28;20094;-72
2022/03/10 09:10:04;;;;;;;22.92;12.18;;;;;;;;;;5052991;28;20075;-76
2022/03/10 09:12:30;;;;;;;25.27;11.63;;;;;;;;;;5052704;28;20028;-75
2022/03/10 09:14:56;;;;;;;22.42;11.77;;;;;;;;;;5052965;28;20455;-75
2022/03/10 09:17:21;;;;;;;25.23;12.02;;;;;;;;;;5053201;28;20502;-75
2022/03/10 09:19:49;;;;;;;22.38;11.90;;;;;;;;;;5052775;28;20144;-74
2022/03/10 09:22:15;;;;;;;26.40;12.75;;;;;;;;;;5053577;28;20079;-77
2022/03/10 09:24:40;;;;;;;25.17;12.50;;;;;;;;;;5053286;28;20044;-69
2022/03/10 09:27:06;;;;;;;27.05;12.50;;;;;;;;;;5053515;28;20395;-76
2022/03/10 09:29:32;;;;;;;24.02;12.65;;;;;;;;;;5053800;28;20463;-76
2022/03/10 09:31:57;;;;;;;22.50;11.82;;;;;;;;;;5051969;28;20036;-74
2022/03/10 09:34:23;;;;;;;25.67;13.10;;;;;;;;;;5053394;28;20037;-73
2022/03/10 09:36:49;;;;;;;25.33;12.45;;;;;;;;;;5051055;28;20444;-76
2022/03/10 09:39:15;;;;;;;26.88;11.98;;;;;;;;;;5053740;28;20033;-72
2022/03/10 09:41:41;;;;;;;24.90;11.98;;;;;;;;;;5051703;28;20041;-70
2022/03/10 09:44:15;;;;;;;27.83;12.57;;;;;;;;;;5051872;28;20033;-75
2022/03/10 09:46:40;;;;;;;21.77;12.18;;;;;;;;;;5052199;28;20076;-68
2022/03/10 09:49:06;;;;;;;25.88;12.43;;;;;;;;;;5052396;28;20061;-75
2022/03/10 09:51:32;;;;;;;27.38;13.02;;;;;;;;;;5052378;28;20065;-77
2022/03/10 09:53:57;;;;;;;28.95;13.50;;;;;;;;;;5052211;28;20029;-77
2022/03/10 09:56:23;;;;;;;26.48;12.57;;;;;;;;;;5052070;28;20105;-71
2022/03/10 09:58:48;;;;;;;29.40;14.18;;;;;;;;;;5032470;28;20040;-75
2022/03/10 10:01:14;;;;;;;31.23;13.43;;;;;;;;;;5047812;28;20091;-73
2022/03/10 10:03:39;;;;;;;29.92;13.30;;;;;;;;;;5051801;28;20029;-70
2022/03/10 10:06:05;;;;;;;31.58;13.68;;;;;;;;;;5052080;28;20037;-77
2022/03/10 10:08:38;;;;;;;26.25;13.43;;;;;;;;;;5053214;28;20028;-76
2022/03/10 10:11:13;;;;;;;25.50;13.27;;;;;;;;;;5051956;28;20044;-73
2022/03/10 10:13:42;;;;;;;26.13;13.50;;;;;;;;;;5052118;28;20044;-77
2022/03/10 10:16:13;;;;;;;28.42;13.55;;;;;;;;;;5052575;28;20032;-78
2022/03/10 10:18:40;;;;;;;25.05;12.30;;;;;;;;;;5052342;28;20055;-71
2022/03/10 10:21:07;;;;;;;27.75;13.43;;;;;;;;;;5051466;28;20463;-76
2022/03/10 10:23:35;;;;;;;33.63;13.32;;;;;;;;;;5051517;28;20120;-76
2022/03/10 10:26:00;;;;;;;28.58;12.85;;;;;;;;;;5051670;28;20099;-75
2022/03/10 10:28:35;;;;;;;27.67;13.32;;;;;;;;;;5052132;28;20029;-76
2022/03/10 10:31:11;;;;;;;25.35;12.93;;;;;;;;;;5051107;28;20150;-72
2022/03/10 10:33:38;;;;;;;26.95;13.32;;;;;;;;;;5052582;28;20409;-74
2022/03/10 10:36:24;;;;;;;27.13;13.25;;;;;;;;;;5051178;28;20275;-75
2022/03/10 10:38:52;;;;;;;26.27;13.50;;;;;;;;;;5032286;28;20053;-77
2022/03/10 10:41:28;;;;;;;25.85;13.15;;;;;;;;;;5045781;28;20076;-77
2022/03/10 10:43:59;;;;;;;26.30;12.85;;;;;;;;;;5051674;28;20029;-76
2022/03/10 10:46:37;;;;;;;26.48;12.77;;;;;;;;;;5051829;28;20037;-75
2022/03/10 10:49:20;;;;;;;25.70;13.18;;;;;;;;;;5051645;28;20036;-78
2022/03/10 10:51:47;;;;;;;24.30;12.73;;;;;;;;;;5050785;28;20466;-73
2022/03/10 10:54:19;;;;;;;25.00;12.75;;;;;;;;;;5052192;28;20048;-77
2022/03/10 10:56:52;;;;;;;24.00;12.57;;;;;;;;;;5050135;28;20043;-70
2022/03/10 10:59:41;;;;;;;28.88;13.85;;;;;;;;;;5052705;28;20159;-78
2022/03/10 11:02:11;;;;;;;23.30;12.23;;;;;;;;;;5039670;28;20152;-76
2022/03/10 11:04:39;;;;;;;24.00;12.70;;;;;;;;;;5052236;28;20032;-76
2022/03/10 11:07:05;;;;;;;24.67;13.75;;;;;;;;;;5049691;28;20036;-75
2022/03/10 11:09:32;;;;;;;26.52;13.75;;;;;;;;;;5050608;28;20367;-77
2022/03/10 11:11:57;;;;;;;31.02;13.93;;;;;;;;;;5050612;28;20066;-76
2022/03/10 11:14:23;;;;;;;28.30;13.15;;;;;;;;;;5051736;28;20025;-76
2022/03/10 11:16:49;;;;;;;25.40;13.57;;;;;;;;;;5050375;28;20464;-75
2022/03/10 11:19:20;;;;;;;24.10;13.27;;;;;;;;;;5050817;28;20398;-77
2022/03/10 11:21:54;;;;;;;;;;;;;;;;;;5049538;28;20372;-69
2022/03/10 11:24:33;;;;;;;23.83;12.43;;;;;;;;;;5050266;28;20386;-77
2022/03/10 11:27:09;;;;;;;24.85;13.00;;;;;;;;;;5050817;28;20036;-75
2022/03/10 11:29:36;;;;;;;24.88;12.60;;;;;;;;;;5051483;28;20029;-72
2022/03/10 11:32:05;;;;;;;24.35;13.05;;;;;;;;;;5054688;28;20039;-71
2022/03/10 11:34:50;;;;;;;22.23;12.25;;;;;;;;;;5058411;28;20025;-70
2022/03/10 11:37:35;;;;;;;22.70;12.63;;;;;;;;;;5063590;28;20074;-71
2022/03/10 11:40:02;;;;;;;23.60;12.98;;;;;;;;;;5016532;28;20045;-72
2022/03/10 11:42:30;;;;;;;21.17;12.45;;;;;;;;;;5050076;28;20070;-71
2022/03/10 11:45:14;;;;;;;22.35;12.98;;;;;;;;;;5049766;28;20032;-71
2022/03/10 11:47:40;;;;;;;20.50;12.48;;;;;;;;;;5051603;28;20040;-71
2022/03/10 11:50:21;;;;;;;19.88;11.85;;;;;;;;;;5050048;28;20126;-71
2022/03/10 11:53:05;;;;;;;20.42;12.35;;;;;;;;;;5050398;28;20484;-65
2022/03/10 11:55:45;;;;;;;20.40;12.18;;;;;;;;;;5051258;28;20433;-71
2022/03/10 11:58:13;;;;;;;20.37;11.97;;;;;;;;;;5052069;28;20116;-74
2022/03/10 12:00:41;;;;;;;18.58;11.57;;;;;;;;;;5051118;28;20265;-75
2022/03/10 12:03:11;;;;;;;23.95;11.30;;;;;;;;;;5049898;28;20057;-72
2022/03/10 12:06:02;;;;;;;18.47;11.77;;;;;;;;;;5049881;28;20033;-75
2022/03/10 12:08:32;;;;;;;20.15;11.75;;;;;;;;;;5050294;28;20766;-76
2022/03/10 12:10:58;;;;;;;20.40;11.73;;;;;;;;;;5050446;28;20029;-76
2022/03/10 12:13:35;;;;;;;17.40;12.02;;;;;;;;;;5051358;28;20282;-74
2022/03/10 12:16:07;;;;;;;18.50;11.60;;;;;;;;;;5050083;28;20029;-73
2022/03/10 12:18:39;;;;;;;17.70;11.60;;;;;;;;;;5050867;28;20106;-75
2022/03/10 12:21:25;;;;;;;15.93;10.48;;;;;;;;;;5049967;28;20120;-74
2022/03/10 12:23:51;;;;;;;18.13;10.82;;;;;;;;;;5050406;28;20029;-74
2022/03/10 12:26:24;;;;;;;17.67;10.52;;;;;;;;;;5051295;28;20029;-76
2022/03/10 12:29:21;;;;;;;18.98;10.40;;;;;;;;;;5050507;28;20044;-74
2022/03/10 12:31:52;;;;;;;16.02;9.75;;;;;;;;;;5050059;28;20040;-68
2022/03/10 12:34:25;;;;;;;15.40;9.98;;;;;;;;;;5049293;28;20556;-75
2022/03/10 12:36:51;;;;;;;15.25;9.30;;;;;;;;;;5050218;28;20041;-72
2022/03/10 12:39:20;;;;;;;13.73;7.50;;;;;;;;;;5050122;28;20111;-76
2022/03/10 12:41:48;;;;;;;12.57;8.43;;;;;;;;;;5049296;28;20056;-69
2022/03/10 12:44:17;;;;;;;12.27;8.07;;;;;;;;;;5049268;28;20036;-76
2022/03/10 12:46:43;;;;;;;16.30;9.23;;;;;;;;;;5049667;28;20037;-75
2022/03/10 12:49:43;;;;;;;16.73;7.88;;;;;;;;;;5049890;28;20036;-75
2022/03/10 12:52:09;;;;;;;12.10;7.20;;;;;;;;;;5040011;28;20500;-75
2022/03/10 12:54:43;;;;;;;12.43;7.30;;;;;;;;;;5054260;28;20033;-77
2022/03/10 12:57:09;;;;;;;10.55;6.97;;;;;;;;;;5053968;28;20479;-76
2022/03/10 12:59:37;;;;;;;11.43;6.57;;;;;;;;;;5053250;28;20060;-75
2022/03/10 13:02:16;;;;;;;12.75;6.25;;;;;;;;;;5053577;28;20028;-75
2022/03/10 13:04:52;;;;;;;10.07;6.32;;;;;;;;;;5053758;28;20051;-74
2022/03/10 13:07:20;;;;;;;9.15;5.82;;;;;;;;;;5037714;28;20044;-73
2022/03/10 13:09:56;;;;;;;9.57;5.70;;;;;;;;;;5052693;28;20037;-68
2022/03/10 13:12:33;;;;;;;10.60;6.30;;;;;;;;;;5053541;28;20061;-72
2022/03/10 13:15:02;;;;;;;8.90;5.63;;;;;;;;;;5053207;28;20490;-75
2022/03/10 13:17:39;;;;;;;7.97;5.18;;;;;;;;;;5054129;28;20044;-76
2022/03/10 13:20:11;;;;;;;11.52;5.50;;;;;;;;;;5052181;28;20049;-73
2022/03/10 13:22:37;;;;;;;7.97;5.18;;;;;;;;;;5053670;28;20037;-76
2022/03/10 13:25:03;;;;;;;8.40;5.38;;;;;;;;;;5053162;28;20032;-73
2022/03/10 13:27:30;;;;;;;8.90;5.43;;;;;;;;;;5053503;28;20055;-71
2022/03/10 13:29:56;;;;;;;8.30;5.28;;;;;;;;;;5052842;28;20037;-71
2022/03/10 13:32:27;;;;;;;7.90;5.55;;;;;;;;;;5052489;28;20031;-71
2022/03/10 13:34:59;;;;;;;8.02;5.50;;;;;;;;;;5066394;28;20097;-72
2022/03/10 13:37:25;;;;;;;8.93;5.85;;;;;;;;;;5051404;28;20037;-74
2022/03/10 13:39:51;;;;;;;9.15;5.10;;;;;;;;;;5066902;28;20040;-74
2022/03/10 13:42:34;;;;;;;9.35;5.18;;;;;;;;;;5052686;28;20079;-71
2022/03/10 13:45:05;;;;;;;8.52;5.45;;;;;;;;;;5052437;28;20041;-73
2022/03/10 13:47:48;;;;;;;8.27;5.00;;;;;;;;;;5053368;28;20025;-72
2022/03/10 13:50:27;;;;;;;7.70;4.75;;;;;;;;;;5053123;28;20033;-73
2022/03/10 13:52:55;;;;;;;7.80;5.30;;;;;;;;;;5054331;28;20398;-73
2022/03/10 13:55:34;;;;;;;7.80;5.15;;;;;;;;;;5053445;28;20028;-75
2022/03/10 13:58:02;;;;;;;6.93;4.85;;;;;;;;;;5051655;28;20413;-69
2022/03/10 14:00:31;;;;;;;10.70;4.93;;;;;;;;;;5063165;28;20044;-71
2022/03/10 14:02:56;;;;;;;7.72;4.90;;;;;;;;;;5051681;28;20035;-76
2022/03/10 14:05:22;;;;;;;7.97;4.80;;;;;;;;;;5052142;28;20033;-74
2022/03/10 14:08:14;;;;;;;6.35;4.60;;;;;;;;;;5052465;28;20436;-69
2022/03/10 14:10:40;;;;;;;7.72;4.20;;;;;;;;;;5053130;28;20111;-73
2022/03/10 14:13:07;;;;;;;10.50;4.50;;;;;;;;;;5058356;28;20056;-71
2022/03/10 14:15:36;;;;;;;6.43;4.60;;;;;;;;;;5033090;28;20185;-71
2022/03/10 14:18:12;;;;;;;8.43;4.50;;;;;;;;;;5045394;28;20075;-70
2022/03/10 14:20:48;;;;;;;7.55;4.60;;;;;;;;;;5052601;28;20052;-73
2022/03/10 14:23:16;;;;;;;6.75;4.63;;;;;;;;;;5052644;28;20155;-70
2022/03/10 14:25:52;;;;;;;7.85;4.60;;;;;;;;;;5052611;28;20025;-70
2022/03/10 14:28:23;;;;;;;7.38;4.47;;;;;;;;;;5052862;28;20098;-70
2022/03/10 14:30:50;;;;;;;9.32;4.85;;;;;;;;;;5051675;28;20032;-69
2022/03/10 14:33:17;;;;;;;7.13;4.90;;;;;;;;;;5052316;28;20047;-69
2022/03/10 14:35:42;;;;;;;7.40;5.18;;;;;;;;;;5054116;28;20444;-71